Time;durP1;ratioP1;P1;durP2;ratioP2;P2;SDS_P1;SDS_P2;PMS_P1;PMS_P2;Temp;Humidity;BMP_temperature;BMP_pressure;BME280_temperature;BME280_humidity;BME280_pressure;Samples;Min_cycle;Max_cycle;Signal;HPM_P1;HPM_P2
2023/01/10 00:01:29;;;;;;;27.67;6.05;;;;;;;5.68;100.00;100947.66;4977828;28;20069;-85
2023/01/10 00:03:55;;;;;;;18.83;5.22;;;;;;;5.78;100.00;100955.56;4998384;28;20018;-85
2023/01/10 00:06:20;;;;;;;15.07;4.20;;;;;;;5.77;100.00;100956.69;4988036;28;20061;-85
2023/01/10 00:08:45;;;;;;;19.65;4.93;;;;;;;5.61;100.00;100958.53;4987859;28;20399;-85
2023/01/10 00:13:55;;;;;;;23.20;4.30;;;;;;;5.75;100.00;100964.56;4985138;28;20084;-85
2023/01/10 00:16:21;;;;;;;29.80;5.53;;;;;;;5.73;100.00;100980.75;4987928;28;20486;-86
2023/01/10 00:18:46;;;;;;;36.88;5.10;;;;;;;5.85;100.00;100980.78;5003797;28;20476;-85
2023/01/10 00:21:13;;;;;;;33.47;6.43;;;;;;;5.74;100.00;100987.94;4987337;28;20037;-85
2023/01/10 00:23:39;;;;;;;25.60;4.80;;;;;;;5.76;100.00;100993.16;4986027;28;20478;-86
2023/01/10 00:26:04;;;;;;;28.80;6.70;;;;;;;5.87;100.00;100989.59;4986348;28;20037;-86
2023/01/10 00:28:33;;;;;;;28.77;4.80;;;;;;;5.79;100.00;100987.72;4986000;28;20739;-85
2023/01/10 00:31:05;;;;;;;22.77;5.00;;;;;;;5.84;100.00;100998.63;4992168;28;20050;-85
2023/01/10 00:33:31;;;;;;;22.25;5.45;;;;;;;5.76;100.00;100993.16;4985683;28;20026;-85
2023/01/10 00:35:57;;;;;;;26.73;4.75;;;;;;;5.82;100.00;101014.81;4984016;28;20072;-87
2023/01/10 00:38:22;;;;;;;34.33;7.18;;;;;;;5.79;100.00;101009.13;4976133;28;20121;-85
2023/01/10 00:40:48;;;;;;;28.80;6.65;;;;;;;5.77;100.00;101009.47;4990008;28;20026;-85
2023/01/10 00:45:57;;;;;;;20.40;5.35;;;;;;;5.82;100.00;101037.03;4982939;28;20137;-85
2023/01/10 00:48:23;;;;;;;20.73;6.15;;;;;;;5.87;100.00;101028.47;4995612;28;20545;-86
2023/01/10 00:50:48;;;;;;;35.33;5.60;;;;;;;5.64;100.00;101025.28;4985990;28;20092;-85
2023/01/10 00:53:14;;;;;;;20.38;5.57;;;;;;;5.89;100.00;101042.84;4986130;28;20034;-85
2023/01/10 00:55:39;;;;;;;14.25;4.53;;;;;;;5.77;100.00;101034.47;4986792;28;20762;-85
2023/01/10 00:58:05;;;;;;;35.33;6.90;;;;;;;5.87;100.00;101045.16;4984970;28;20042;-85
2023/01/10 01:00:31;;;;;;;28.13;5.50;;;;;;;5.88;100.00;101049.56;4990895;28;20026;-85
2023/01/10 01:02:56;;;;;;;19.83;4.78;;;;;;;5.84;100.00;101054.19;4978021;28;20086;-85
2023/01/10 01:05:21;;;;;;;25.08;5.25;;;;;;;5.68;100.00;101026.22;4988747;28;20522;-85
2023/01/10 01:07:51;;;;;;;24.42;4.30;;;;;;;5.87;100.00;101044.34;4988259;28;20022;-85
2023/01/10 01:10:26;;;;;;;19.50;4.30;;;;;;;5.86;100.00;101051.88;4986314;28;20466;-85
2023/01/10 01:12:55;;;;;;;17.80;4.40;;;;;;;5.93;100.00;101053.28;4988947;28;20026;-85
2023/01/10 01:15:21;;;;;;;20.45;5.43;;;;;;;5.86;100.00;101062.16;4983913;28;20038;-85
2023/01/10 01:17:47;;;;;;;23.30;4.22;;;;;;;5.97;100.00;101068.16;4990010;28;20050;-85
2023/01/10 01:20:13;;;;;;;17.08;5.95;;;;;;;6.00;100.00;101059.13;5001292;28;20073;-85
2023/01/10 01:22:39;;;;;;;15.57;3.85;;;;;;;6.02;100.00;101067.94;5004092;28;20034;-85
2023/01/10 01:25:05;;;;;;;27.98;7.13;;;;;;;5.94;100.00;101077.13;4984731;28;20022;-85
2023/01/10 01:27:30;;;;;;;17.63;4.45;;;;;;;5.95;100.00;101084.34;4987099;28;20457;-85
2023/01/10 01:29:56;;;;;;;29.02;4.70;;;;;;;5.88;100.00;101068.19;4992937;28;20106;-85
2023/01/10 01:32:21;;;;;;;20.50;4.53;;;;;;;5.91;100.00;101090.53;4990021;28;20041;-85
2023/01/10 01:34:47;;;;;;;18.35;5.90;;;;;;;5.86;100.00;101099.09;4985075;28;20390;-85
2023/01/10 01:37:12;;;;;;;18.80;5.78;;;;;;;5.94;100.00;101091.81;4982410;28;20109;-85
2023/01/10 01:39:37;;;;;;;23.35;4.57;;;;;;;5.84;100.00;101090.28;4982428;28;20061;-85
2023/01/10 01:42:04;;;;;;;19.02;3.97;;;;;;;5.93;100.00;101100.53;4987225;28;20068;-85
2023/01/10 01:44:32;;;;;;;29.27;5.10;;;;;;;5.85;100.00;101116.91;4988962;28;20121;-85
2023/01/10 01:47:11;;;;;;;28.63;4.60;;;;;;;5.79;100.00;101112.72;4981960;28;20565;-85
2023/01/10 01:49:41;;;;;;;30.17;5.85;;;;;;;5.90;100.00;101111.16;4983470;28;20110;-85
2023/01/10 01:52:11;;;;;;;19.88;4.47;;;;;;;5.98;100.00;101111.44;4988890;28;20130;-85
2023/01/10 01:54:36;;;;;;;18.58;3.60;;;;;;;5.84;100.00;101095.84;4989784;28;20034;-85
2023/01/10 01:57:24;;;;;;;13.98;3.25;;;;;;;5.91;100.00;101112.78;4984139;28;20479;-85
2023/01/10 01:59:52;;;;;;;18.05;4.32;;;;;;;6.00;100.00;101120.25;4990734;28;20032;-85
2023/01/10 02:02:23;;;;;;;22.92;3.67;;;;;;;5.94;100.00;101143.81;4984357;28;20142;-85
2023/01/10 02:04:55;;;;;;;23.60;4.78;;;;;;;5.95;100.00;101137.16;5007575;28;20053;-85
2023/01/10 02:07:23;;;;;;;15.20;3.50;;;;;;;5.97;100.00;101137.63;4987017;28;20034;-85
2023/01/10 02:10:02;;;;;;;20.50;4.65;;;;;;;5.91;100.00;101139.75;4992335;28;20117;-85
2023/01/10 02:12:30;;;;;;;28.50;4.63;;;;;;;5.79;100.00;101142.47;4991971;28;20022;-85
2023/01/10 02:14:57;;;;;;;29.30;6.40;;;;;;;5.75;100.00;101136.75;4992838;28;21504;-85
2023/01/10 02:17:22;;;;;;;20.02;4.38;;;;;;;5.91;100.00;101151.66;4989821;28;20039;-85
2023/01/10 02:20:02;;;;;;;26.50;6.22;;;;;;;5.80;100.00;101149.66;4990272;28;20023;-85
2023/01/10 02:22:52;;;;;;;20.58;4.90;;;;;;;5.88;100.00;101159.84;5005963;28;20033;-85
2023/01/10 02:25:47;;;;;;;28.10;5.47;;;;;;;5.71;100.00;101160.81;4999200;28;20062;-86
2023/01/10 02:28:22;;;;;;;21.88;4.95;;;;;;;5.80;100.00;101161.56;5004018;28;20429;-87
2023/01/10 02:31:12;;;;;;;23.85;4.63;;;;;;;5.94;100.00;101164.06;4986952;28;20026;-87
2023/01/10 02:33:52;;;;;;;35.67;5.53;;;;;;;5.89;100.00;101136.50;4990617;28;20030;-86
2023/01/10 02:37:00;;;;;;;24.05;3.88;;;;;;;5.68;100.00;101159.53;5000662;28;20038;-86
2023/01/10 02:39:36;;;;;;;16.67;3.83;;;;;;;5.66;100.00;101139.59;4984088;28;20494;-86
2023/01/10 02:42:08;;;;;;;11.02;4.43;;;;;;;5.75;100.00;101167.31;4991175;28;20034;-85
2023/01/10 02:44:44;;;;;;;21.65;4.47;;;;;;;5.78;100.00;101166.66;4992388;28;20109;-85
2023/01/10 02:47:12;;;;;;;24.35;5.75;;;;;;;5.67;100.00;101168.19;4990797;28;20037;-85
2023/01/10 02:49:49;;;;;;;24.45;4.55;;;;;;;5.62;100.00;101171.97;5004761;28;20042;-85
2023/01/10 02:52:26;;;;;;;21.00;5.88;;;;;;;5.74;100.00;101168.47;4990814;28;20390;-85
2023/01/10 02:54:58;;;;;;;26.30;5.95;;;;;;;5.78;100.00;101174.97;4985564;28;20030;-86
2023/01/10 02:57:35;;;;;;;31.58;4.47;;;;;;;5.86;100.00;101176.88;4986023;28;20042;-86
2023/01/10 03:00:40;;;;;;;18.90;4.20;;;;;;;5.81;100.00;101173.50;4987130;28;20041;-86
2023/01/10 03:03:14;;;;;;;13.80;4.43;;;;;;;5.93;100.00;101181.09;4984641;28;20065;-86
2023/01/10 03:06:17;;;;;;;20.45;3.58;;;;;;;6.04;100.00;101179.56;4982866;28;20037;-85
2023/01/10 03:08:49;;;;;;;;;;;;;;;5.99;100.00;101199.22;4986864;28;20450;-86
2023/01/10 03:11:14;;;;;;;32.63;5.20;;;;;;;5.86;100.00;101198.28;4990132;28;19913;-87
2023/01/10 03:13:51;;;;;;;12.60;3.03;;;;;;;5.91;100.00;101196.13;4997028;28;20032;-87
2023/01/10 03:16:22;;;;;;;16.52;4.03;;;;;;;5.95;100.00;101199.06;5005390;28;20034;-87
2023/01/10 03:18:56;;;;;;;26.98;5.88;;;;;;;5.85;100.00;101200.25;4987682;28;20026;-86
2023/01/10 03:21:25;;;;;;;18.92;5.15;;;;;;;5.95;100.00;101193.53;4998511;28;20424;-86
2023/01/10 03:23:55;;;;;;;26.52;7.47;;;;;;;5.89;100.00;101195.66;4987805;28;20028;-85
2023/01/10 03:26:29;;;;;;;29.48;5.57;;;;;;;5.88;100.00;101202.38;5001614;28;20048;-85
2023/01/10 03:29:02;;;;;;;25.08;4.95;;;;;;;5.73;100.00;101188.25;4985807;28;20359;-85
2023/01/10 03:31:34;;;;;;;23.35;5.82;;;;;;;5.83;100.00;101205.34;4984857;28;20609;-85
2023/01/10 03:34:00;;;;;;;24.38;5.07;;;;;;;5.84;100.00;101203.34;5001352;28;20034;-86
2023/01/10 03:36:33;;;;;;;21.95;3.40;;;;;;;5.78;100.00;101199.19;4986241;28;20042;-85
2023/01/10 03:39:15;;;;;;;16.00;4.00;;;;;;;5.96;100.00;101222.09;5000622;28;20037;-86
2023/01/10 03:41:49;;;;;;;24.92;4.60;;;;;;;5.97;100.00;101226.53;5004970;28;20046;-85
2023/01/10 03:44:44;;;;;;;15.10;4.00;;;;;;;5.88;100.00;101224.59;4986240;28;20109;-85
2023/01/10 03:47:26;;;;;;;23.15;4.45;;;;;;;5.90;100.00;101230.63;4987658;28;20059;-85
2023/01/10 03:50:13;;;;;;;23.02;6.03;;;;;;;5.88;100.00;101229.31;4990311;28;20022;-85
2023/01/10 03:52:40;;;;;;;21.73;5.38;;;;;;;5.80;100.00;101239.34;4988963;28;20129;-85
2023/01/10 03:55:09;;;;;;;26.10;3.88;;;;;;;5.81;100.00;101246.53;4984921;28;20169;-85
2023/01/10 03:57:35;;;;;;;27.50;3.78;;;;;;;5.67;100.00;101218.19;4986439;28;20038;-85
2023/01/10 04:00:00;;;;;;;35.33;6.05;;;;;;;5.74;100.00;101246.25;4986396;28;20026;-86
2023/01/10 04:02:27;;;;;;;21.63;3.72;;;;;;;5.65;100.00;101257.41;4988537;28;20026;-85
2023/01/10 04:04:53;;;;;;;22.80;5.90;;;;;;;5.81;100.00;101263.19;4987334;28;20322;-85
2023/01/10 04:07:18;;;;;;;28.50;5.90;;;;;;;5.78;100.00;101263.06;4983940;28;20522;-85
2023/01/10 04:09:44;;;;;;;32.00;5.38;;;;;;;5.66;100.00;101263.78;4985402;28;20510;-86
2023/01/10 04:12:10;;;;;;;20.63;4.57;;;;;;;5.82;100.00;101273.16;4988831;28;20536;-85
2023/01/10 04:14:35;;;;;;;28.67;5.18;;;;;;;5.85;100.00;101250.25;4982294;28;20125;-85
2023/01/10 04:17:00;;;;;;;22.10;3.95;;;;;;;5.90;100.00;101266.75;4978614;28;20034;-85
2023/01/10 04:19:26;;;;;;;22.67;5.32;;;;;;;5.71;100.00;101269.13;4986695;28;20041;-86
2023/01/10 04:21:51;;;;;;;34.13;7.75;;;;;;;5.80;100.00;101278.25;4987044;28;20406;-86
2023/01/10 04:24:17;;;;;;;25.50;4.78;;;;;;;5.84;100.00;101279.19;5000255;28;20037;-86
2023/01/10 04:26:43;;;;;;;33.00;5.00;;;;;;;5.84;100.00;101273.66;4986785;28;20112;-86
2023/01/10 04:29:09;;;;;;;35.65;6.65;;;;;;;5.78;100.00;101260.28;4985285;28;20478;-86
2023/01/10 04:31:34;;;;;;;24.92;4.28;;;;;;;5.89;100.00;101270.66;5003710;28;20022;-86
2023/01/10 04:34:00;;;;;;;29.10;4.95;;;;;;;5.88;100.00;101285.72;5005703;28;20044;-87
2023/01/10 04:36:26;;;;;;;26.08;5.70;;;;;;;5.81;100.00;101268.75;4987373;28;20113;-86
2023/01/10 04:38:51;;;;;;;28.98;4.85;;;;;;;5.78;100.00;101286.09;5006662;28;20022;-86
2023/01/10 04:41:17;;;;;;;23.20;4.53;;;;;;;5.80;100.00;101289.34;5008340;28;20117;-86
2023/01/10 04:43:42;;;;;;;28.00;6.05;;;;;;;5.83;100.00;101283.13;4985761;28;20409;-85
2023/01/10 04:46:07;;;;;;;17.17;4.20;;;;;;;5.85;100.00;101296.69;4985115;28;20176;-85
2023/01/10 04:48:33;;;;;;;27.60;5.40;;;;;;;5.80;100.00;101306.03;5004531;28;20038;-85
2023/01/10 04:50:58;;;;;;;19.98;3.97;;;;;;;5.80;100.00;101310.78;4987418;28;20025;-85
2023/01/10 04:53:24;;;;;;;28.83;4.35;;;;;;;5.82;100.00;101314.84;4985794;28;20026;-86
2023/01/10 04:55:49;;;;;;;18.58;4.50;;;;;;;5.96;100.00;101313.81;4983321;28;20029;-86
2023/01/10 04:58:15;;;;;;;16.23;3.72;;;;;;;5.95;100.00;101309.41;4983167;28;20053;-87
2023/01/10 05:00:40;;;;;;;10.73;4.15;;;;;;;5.96;100.00;101316.59;4989809;28;20018;-86
2023/01/10 05:03:06;;;;;;;22.30;4.97;;;;;;;5.87;100.00;101317.41;4989503;28;20065;-86
2023/01/10 05:05:31;;;;;;;37.25;5.75;;;;;;;5.87;100.00;101314.63;4984662;28;20088;-86
2023/01/10 05:07:57;;;;;;;18.65;5.47;;;;;;;5.95;100.00;101326.09;4986588;28;20031;-86
2023/01/10 05:10:23;;;;;;;20.92;5.60;;;;;;;5.77;100.00;101323.34;4982128;28;20167;-86
2023/01/10 05:12:48;;;;;;;23.20;4.32;;;;;;;5.76;100.00;101338.41;4987393;28;20450;-86
2023/01/10 05:15:14;;;;;;;24.13;5.75;;;;;;;5.79;100.00;101337.72;4987614;28;20034;-86
2023/01/10 05:17:39;;;;;;;29.77;5.72;;;;;;;5.94;100.00;101341.09;4987053;28;20048;-86
2023/01/10 05:20:05;;;;;;;18.25;5.28;;;;;;;5.80;100.00;101325.47;4985717;28;20402;-86
2023/01/10 05:22:31;;;;;;;29.50;5.22;;;;;;;5.97;100.00;101348.78;4980645;28;20038;-86
2023/01/10 05:24:56;;;;;;;20.40;4.18;;;;;;;5.89;100.00;101344.88;4985999;28;20037;-86
2023/01/10 05:27:22;;;;;;;25.92;4.70;;;;;;;5.98;100.00;101350.41;4988132;28;20188;-86
2023/01/10 05:29:47;;;;;;;38.70;6.80;;;;;;;5.96;100.00;101339.63;4985173;28;20034;-86
2023/01/10 05:32:12;;;;;;;16.83;4.72;;;;;;;5.98;100.00;101350.41;4988119;28;20037;-85
2023/01/10 05:34:38;;;;;;;27.20;4.00;;;;;;;5.95;100.00;101351.91;4981850;28;20109;-86
2023/01/10 05:37:03;;;;;;;34.45;8.55;;;;;;;5.72;100.00;101348.53;4986467;28;20033;-86
2023/01/10 05:39:29;;;;;;;24.70;5.05;;;;;;;5.67;100.00;101340.38;4987071;28;20035;-86
2023/01/10 05:41:54;;;;;;;19.83;5.07;;;;;;;5.79;100.00;101365.50;4991364;28;20061;-86
2023/01/10 05:44:20;;;;;;;26.27;4.68;;;;;;;5.72;100.00;101348.53;4989890;28;20398;-86
2023/01/10 05:46:45;;;;;;;19.17;4.88;;;;;;;5.79;100.00;101342.47;4985321;28;20128;-86
2023/01/10 05:49:11;;;;;;;28.27;5.82;;;;;;;5.90;100.00;101352.03;4983036;28;20030;-85
2023/01/10 05:51:36;;;;;;;20.75;4.22;;;;;;;5.94;100.00;101349.41;4989842;28;20479;-86
2023/01/10 05:54:01;;;;;;;19.83;5.15;;;;;;;5.75;100.00;101353.41;4993143;28;20034;-86
2023/01/10 05:56:28;;;;;;;22.52;4.78;;;;;;;5.82;100.00;101359.28;4991628;28;20449;-86
2023/01/10 05:58:53;;;;;;;16.65;3.95;;;;;;;5.89;100.00;101367.91;4983878;28;20026;-86
2023/01/10 06:01:19;;;;;;;25.02;5.30;;;;;;;5.86;100.00;101364.97;4981447;28;20034;-87
2023/01/10 06:03:44;;;;;;;16.88;5.32;;;;;;;5.81;100.00;101368.75;4980389;28;20038;-86
2023/01/10 06:06:09;;;;;;;21.75;5.95;;;;;;;6.01;100.00;101378.34;4990639;28;20501;-86
2023/01/10 06:08:35;;;;;;;17.95;4.95;;;;;;;5.88;100.00;101366.28;4998518;28;20055;-86
2023/01/10 06:11:04;;;;;;;21.58;4.65;;;;;;;5.98;100.00;101383.75;4987557;28;20491;-86
2023/01/10 06:13:30;;;;;;;21.20;7.05;;;;;;;5.97;100.00;101376.59;4984722;28;20034;-86
2023/01/10 06:15:55;;;;;;;25.70;6.50;;;;;;;5.94;100.00;101368.88;4987758;28;20069;-86
2023/01/10 06:18:21;;;;;;;19.63;4.43;;;;;;;5.90;100.00;101369.56;4987628;28;20030;-86
2023/01/10 06:20:47;;;;;;;26.48;5.57;;;;;;;5.93;100.00;101381.94;4998789;28;20081;-86
2023/01/10 06:23:12;;;;;;;19.27;4.22;;;;;;;5.88;100.00;101396.84;5000618;28;20148;-86
2023/01/10 06:25:39;;;;;;;25.77;6.70;;;;;;;5.93;100.00;101397.81;4991124;28;20041;-86
2023/01/10 06:28:05;;;;;;;28.73;5.35;;;;;;;5.89;100.00;101420.69;5003389;28;20027;-86
2023/01/10 06:30:32;;;;;;;24.60;5.07;;;;;;;5.84;100.00;101428.38;4996049;28;20036;-86
2023/01/10 06:33:03;;;;;;;23.98;4.68;;;;;;;5.90;100.00;101425.13;5008732;28;20045;-86
2023/01/10 06:35:29;;;;;;;21.38;4.78;;;;;;;5.93;100.00;101437.53;5013541;28;20045;-86
2023/01/10 06:37:54;;;;;;;28.27;5.38;;;;;;;5.87;100.00;101428.53;4986961;28;20026;-85
2023/01/10 06:40:20;;;;;;;32.60;6.47;;;;;;;5.81;100.00;101435.44;4982824;28;20058;-86
2023/01/10 06:42:45;;;;;;;36.72;8.55;;;;;;;5.84;100.00;101448.66;4980058;28;20038;-86
2023/01/10 06:45:11;;;;;;;26.55;4.47;;;;;;;5.84;100.00;101437.56;4983322;28;20104;-85
2023/01/10 06:47:36;;;;;;;26.30;5.07;;;;;;;5.81;100.00;101445.72;4990229;28;20054;-85
2023/01/10 06:50:03;;;;;;;27.00;5.88;;;;;;;5.87;100.00;101456.31;4984397;28;20051;-86
2023/01/10 06:52:29;;;;;;;28.92;7.30;;;;;;;5.89;100.00;101454.03;4987245;28;20038;-86
2023/01/10 06:54:54;;;;;;;27.60;4.57;;;;;;;5.76;100.00;101432.84;4981549;28;20034;-86
2023/01/10 06:57:20;;;;;;;26.20;5.72;;;;;;;5.82;100.00;101445.41;4998588;28;20026;-86
2023/01/10 06:59:45;;;;;;;22.30;5.18;;;;;;;5.76;100.00;101449.50;4972851;28;20181;-86
2023/01/10 07:02:11;;;;;;;26.42;5.68;;;;;;;5.78;100.00;101446.41;4975129;28;20176;-86
2023/01/10 07:04:36;;;;;;;25.05;5.90;;;;;;;5.73;100.00;101463.22;4984039;28;20026;-86
2023/01/10 07:07:02;;;;;;;25.15;5.35;;;;;;;5.48;100.00;101452.69;4986883;28;20038;-86
2023/01/10 07:09:28;;;;;;;48.83;7.15;;;;;;;5.66;100.00;101458.19;4983686;28;20043;-87
2023/01/10 07:11:53;;;;;;;20.33;5.45;;;;;;;5.73;100.00;101466.00;5001545;28;20034;-86
2023/01/10 07:14:19;;;;;;;33.00;5.55;;;;;;;6.72;100.00;101462.97;4987827;28;20041;-87
2023/01/10 07:16:44;;;;;;;27.42;4.85;;;;;;;6.11;100.00;101477.19;4986741;28;20128;-83
2023/01/10 07:19:12;;;;;;;39.70;6.45;;;;;;;5.68;100.00;101481.72;4985487;28;21538;-83
2023/01/10 07:21:38;;;;;;;35.75;6.00;;;;;;;6.05;100.00;101492.41;4989237;28;20030;-81
2023/01/10 07:24:03;;;;;;;32.55;6.00;;;;;;;5.89;100.00;101490.16;4992640;28;20398;-81
2023/01/10 07:26:29;;;;;;;28.92;5.90;;;;;;;5.79;100.00;101498.84;4981101;28;20034;-82
2023/01/10 07:28:54;;;;;;;24.00;6.45;;;;;;;5.65;100.00;101493.50;4985037;28;20033;-81
2023/01/10 07:31:21;;;;;;;20.65;4.22;;;;;;;5.74;100.00;101507.34;4981992;28;20162;-82
2023/01/10 07:33:47;;;;;;;24.15;5.65;;;;;;;5.70;100.00;101509.16;4989417;28;20026;-82
2023/01/10 07:36:12;;;;;;;37.85;7.95;;;;;;;6.02;100.00;101498.66;4997390;28;20033;-82
2023/01/10 07:38:38;;;;;;;38.92;7.45;;;;;;;5.81;100.00;101512.41;5002258;28;20109;-82
2023/01/10 07:41:05;;;;;;;49.35;11.02;;;;;;;5.59;100.00;101514.25;4984996;28;20368;-81
2023/01/10 07:43:31;;;;;;;30.30;5.70;;;;;;;5.70;100.00;101511.94;4981957;28;20030;-81
2023/01/10 07:46:01;;;;;;;26.25;7.25;;;;;;;5.73;100.00;101516.81;4988874;28;20407;-81
2023/01/10 07:48:26;;;;;;;20.90;6.07;;;;;;;5.71;100.00;101519.13;5001370;28;20142;-81
2023/01/10 07:50:59;;;;;;;30.02;6.32;;;;;;;5.71;100.00;101524.66;4982927;28;20117;-81
2023/01/10 07:53:25;;;;;;;;;;;;;;;5.77;100.00;101539.22;4981842;28;20590;-81
2023/01/10 07:55:50;;;;;;;21.30;5.85;;;;;;;5.67;100.00;101537.56;4983014;28;19967;-82
2023/01/10 07:58:15;;;;;;;37.65;7.63;;;;;;;5.80;100.00;101544.94;4979132;28;20470;-82
2023/01/10 08:00:42;;;;;;;35.47;6.18;;;;;;;5.72;100.00;101545.75;4982181;28;20069;-81
2023/01/10 08:03:09;;;;;;;45.88;7.50;;;;;;;5.73;100.00;101546.56;4984030;28;20042;-81
2023/01/10 08:05:35;;;;;;;28.23;7.28;;;;;;;5.76;100.00;101554.25;4990076;28;20077;-81
2023/01/10 08:08:08;;;;;;;35.28;6.63;;;;;;;5.65;100.00;101550.97;4987273;28;20038;-79
2023/01/10 08:10:35;;;;;;;25.90;7.07;;;;;;;5.69;100.00;101543.63;4986037;28;20038;-81
2023/01/10 08:13:00;;;;;;;30.65;6.03;;;;;;;5.83;100.00;101552.59;4983753;28;20723;-81
2023/01/10 08:15:26;;;;;;;29.30;6.70;;;;;;;5.88;100.00;101548.81;4998431;28;20080;-81
2023/01/10 08:17:51;;;;;;;38.35;6.28;;;;;;;5.94;100.00;101555.03;4985641;28;20363;-81
2023/01/10 08:20:17;;;;;;;28.58;6.07;;;;;;;5.94;100.00;101553.06;4988827;28;20061;-81
2023/01/10 08:22:42;;;;;;;33.33;6.78;;;;;;;5.82;100.00;101555.69;4981273;28;20042;-81
2023/01/10 08:25:08;;;;;;;48.35;7.15;;;;;;;5.87;100.00;101550.78;4985450;28;20116;-81
2023/01/10 08:27:33;;;;;;;33.50;8.88;;;;;;;5.94;100.00;101544.72;4986852;28;20030;-81
2023/01/10 08:29:58;;;;;;;33.10;6.80;;;;;;;6.00;100.00;101548.19;4984053;28;20037;-82
2023/01/10 08:32:24;;;;;;;36.85;7.60;;;;;;;5.87;100.00;101548.03;4981935;28;20027;-81
2023/01/10 08:34:49;;;;;;;33.42;7.90;;;;;;;5.99;100.00;101558.50;4981613;28;20034;-81
2023/01/10 08:37:14;;;;;;;35.20;7.10;;;;;;;5.99;100.00;101558.50;4989294;28;20038;-81
2023/01/10 08:39:40;;;;;;;28.33;6.80;;;;;;;6.02;100.00;101568.13;4997951;28;20034;-80
2023/01/10 08:42:06;;;;;;;35.25;8.38;;;;;;;6.05;100.00;101561.91;4985311;28;20040;-81
2023/01/10 08:44:32;;;;;;;32.60;7.22;;;;;;;6.07;100.00;101573.50;4984920;28;20941;-82
2023/01/10 08:46:57;;;;;;;38.83;6.90;;;;;;;6.03;100.00;101569.75;4985057;28;20491;-81
2023/01/10 08:49:23;;;;;;;44.78;7.63;;;;;;;6.01;100.00;101566.47;4981968;28;20026;-80
2023/01/10 08:51:48;;;;;;;52.85;9.73;;;;;;;6.00;100.00;101567.66;4988294;28;20035;-81
2023/01/10 08:54:14;;;;;;;42.55;8.63;;;;;;;6.03;100.00;101564.19;4991076;28;20583;-82
2023/01/10 08:56:39;;;;;;;39.75;8.85;;;;;;;6.10;100.00;101565.31;4984218;28;20038;-81
2023/01/10 08:59:06;;;;;;;26.98;6.88;;;;;;;6.11;100.00;101566.13;4998017;28;20022;-81
2023/01/10 09:01:31;;;;;;;44.47;8.20;;;;;;;6.21;100.00;101563.00;4977444;28;20038;-81
2023/01/10 09:03:57;;;;;;;32.65;7.80;;;;;;;6.15;100.00;101558.78;4980697;28;20034;-81
2023/01/10 09:06:23;;;;;;;33.75;7.47;;;;;;;6.14;100.00;101564.69;4986511;28;20030;-81
2023/01/10 09:08:48;;;;;;;36.47;8.88;;;;;;;6.17;100.00;101567.59;4981356;28;20047;-81
2023/01/10 09:11:14;;;;;;;44.08;9.32;;;;;;;6.20;100.00;101560.56;4978344;28;20620;-81
2023/01/10 09:13:39;;;;;;;45.47;8.40;;;;;;;6.17;100.00;101564.81;4979443;28;20089;-81
2023/01/10 09:16:05;;;;;;;32.55;7.82;;;;;;;6.09;100.00;101568.44;4981214;28;20382;-81
2023/01/10 09:18:30;;;;;;;48.05;9.63;;;;;;;6.13;100.00;101566.63;4971718;28;20477;-81
2023/01/10 09:20:56;;;;;;;41.15;9.55;;;;;;;6.14;100.00;101562.72;4983159;28;20113;-81
2023/01/10 09:23:22;;;;;;;62.17;11.30;;;;;;;6.19;100.00;101568.09;4986467;28;20033;-80
2023/01/10 09:25:52;;;;;;;40.55;8.93;;;;;;;6.23;100.00;101566.28;4983830;28;20034;-81
2023/01/10 09:28:19;;;;;;;42.08;9.77;;;;;;;6.18;100.00;101572.03;4978136;28;20035;-82
2023/01/10 09:30:45;;;;;;;46.10;10.30;;;;;;;6.19;100.00;101572.84;4993818;28;20488;-81
2023/01/10 09:33:12;;;;;;;43.92;10.27;;;;;;;6.33;100.00;101578.22;4984557;28;20034;-81
2023/01/10 09:35:39;;;;;;;57.88;15.65;;;;;;;6.26;100.00;101579.53;4987073;28;20030;-81
2023/01/10 09:38:08;;;;;;;50.03;12.20;;;;;;;6.22;100.00;101577.72;4986986;28;20037;-81
2023/01/10 09:40:52;;;;;;;54.28;11.50;;;;;;;6.28;100.00;101566.13;4980067;28;20505;-81
2023/01/10 09:43:36;;;;;;;62.80;12.52;;;;;;;6.27;100.00;101564.47;4981170;28;20027;-81
2023/01/10 09:46:09;;;;;;;37.60;10.73;;;;;;;6.26;100.00;101562.84;4984015;28;20534;-81
2023/01/10 09:48:52;;;;;;;56.13;14.52;;;;;;;6.31;100.00;101557.09;4981456;28;20033;-81
2023/01/10 09:51:43;;;;;;;;;;;;;;;6.40;100.00;101570.16;4982568;28;20112;-81
2023/01/10 09:54:19;;;;;;;43.45;12.02;;;;;;;6.36;100.00;101571.97;4979678;28;19925;-81
2023/01/10 09:56:46;;;;;;;41.65;12.18;;;;;;;6.34;100.00;101579.81;4980947;28;20390;-81
2023/01/10 09:59:18;;;;;;;46.50;12.45;;;;;;;6.24;100.00;101573.47;4982020;28;20487;-81
2023/01/10 10:01:45;;;;;;;52.25;11.85;;;;;;;6.22;100.00;101573.00;4982338;28;20031;-81
2023/01/10 10:04:33;;;;;;;45.50;11.25;;;;;;;6.34;100.00;101577.03;4985147;28;20038;-81
2023/01/10 10:06:59;;;;;;;35.85;11.15;;;;;;;6.33;100.00;101569.88;4995871;28;20072;-81
2023/01/10 10:09:31;;;;;;;43.03;11.90;;;;;;;6.31;100.00;101564.63;4989322;28;20086;-81
2023/01/10 10:12:24;;;;;;;33.30;12.23;;;;;;;6.30;100.00;101574.94;4994794;28;20037;-81
2023/01/10 10:15:13;;;;;;;45.28;13.88;;;;;;;6.30;100.00;101580.50;4989698;28;20874;-81
2023/01/10 10:17:51;;;;;;;30.48;11.25;;;;;;;6.31;100.00;101571.00;4988697;28;20641;-81
2023/01/10 10:20:44;;;;;;;44.25;12.88;;;;;;;6.38;100.00;101572.44;5000940;28;20093;-82
2023/01/10 10:23:23;;;;;;;31.20;12.50;;;;;;;6.37;100.00;101574.44;5003341;28;20122;-81
2023/01/10 10:26:22;;;;;;;53.05;11.85;;;;;;;6.40;100.00;101556.25;4987609;28;20030;-80
2023/01/10 10:29:07;;;;;;;41.78;11.57;;;;;;;6.32;100.00;101555.13;4985759;28;20026;-81
2023/01/10 10:32:11;;;;;;;37.10;10.18;;;;;;;6.28;100.00;101549.44;4985282;28;20022;-81
2023/01/10 10:34:42;;;;;;;30.17;10.02;;;;;;;6.38;100.00;101553.78;4979902;28;20560;-81
2023/01/10 10:37:19;;;;;;;33.80;10.75;;;;;;;6.36;100.00;101552.50;4985821;28;20046;-81
2023/01/10 10:39:51;;;;;;;36.47;9.68;;;;;;;6.36;100.00;101541.38;4980606;28;20126;-81
2023/01/10 10:42:18;;;;;;;62.42;10.60;;;;;;;6.43;100.00;101527.75;4980480;28;20372;-81
2023/01/10 10:45:30;;;;;;;45.78;10.98;;;;;;;6.35;100.00;101531.41;4999940;28;20030;-81
2023/01/10 10:48:00;;;;;;;36.10;8.82;;;;;;;6.37;100.00;101524.38;4987765;28;20545;-81
2023/01/10 10:50:38;;;;;;;35.05;9.30;;;;;;;6.47;100.00;101524.00;4984981;28;20025;-81
2023/01/10 10:53:04;;;;;;;40.42;10.52;;;;;;;6.41;100.00;101521.72;4985215;28;20469;-81
2023/01/10 10:55:35;;;;;;;44.13;9.10;;;;;;;6.37;100.00;101518.81;4983687;28;20067;-81
2023/01/10 10:58:03;;;;;;;41.00;12.50;;;;;;;6.33;100.00;101525.38;4985353;28;20500;-81
2023/01/10 11:00:29;;;;;;;47.40;9.38;;;;;;;6.36;100.00;101519.94;4985032;28;20037;-81
2023/01/10 11:03:06;;;;;;;47.03;10.45;;;;;;;6.34;100.00;101502.78;4984747;28;20049;-81
2023/01/10 11:05:36;;;;;;;32.08;9.88;;;;;;;6.39;100.00;101510.94;4984818;28;20027;-81
2023/01/10 11:08:22;;;;;;;39.72;10.00;;;;;;;6.35;100.00;101520.31;4984284;28;20034;-81
2023/01/10 11:10:56;;;;;;;41.67;9.48;;;;;;;6.31;100.00;101511.81;4984678;28;20581;-81
2023/01/10 11:13:34;;;;;;;53.55;12.40;;;;;;;6.42;100.00;101509.47;5002253;28;20033;-81
2023/01/10 11:16:01;;;;;;;41.58;11.55;;;;;;;6.44;100.00;101504.38;4980916;28;20426;-81
2023/01/10 11:18:30;;;;;;;51.78;10.00;;;;;;;6.43;100.00;101506.34;4998363;28;20022;-81
2023/01/10 11:21:07;;;;;;;39.65;10.35;;;;;;;6.39;100.00;101505.38;4998806;28;20071;-81
2023/01/10 11:23:40;;;;;;;34.47;10.70;;;;;;;6.36;100.00;101494.13;4981788;28;20046;-81
2023/01/10 11:26:08;;;;;;;41.60;9.55;;;;;;;6.35;100.00;101495.28;4983177;28;20037;-81
2023/01/10 11:28:35;;;;;;;33.55;8.60;;;;;;;6.39;100.00;101488.72;4985505;28;20100;-81
2023/01/10 11:31:02;;;;;;;71.55;12.93;;;;;;;6.40;100.00;101495.88;4983451;28;20034;-81
2023/01/10 11:33:31;;;;;;;38.80;10.13;;;;;;;6.43;100.00;101495.22;4999559;28;20513;-81